TGW258 WSSS-WADL
Flight info
| Callsign | TGW258 |
|---|---|
| Flight time | 2h 22m |
| Altitude | 37000 |
| Route | IDBUD1A IDBUD T24 SURGA M635 RAMPY DCT AGUNG |
| Aircraft | A320/M-SDFGHIRWYZ/LB1 |
Departure
| Time | 2026-04-26 16:17 |
|---|---|
| Airport | Singapore Changi Airport (WSSS) |
Arrival
| Time | 2026-04-26 18:40 |
|---|---|
| Airport | Lombok International Airport (WADL) |
| Time | Latitude | Longitude | Altitude | Speed | Heading |
|---|---|---|---|---|---|
| 2026-04-26 15:37 | 1.36468 | 103.99341 | 25 ft | 0 kts | 143° |
| 2026-04-26 16:02 | 1.36470 | 103.99340 | 24 ft | 2 kts | 143° |
| 2026-04-26 16:02 | 1.36483 | 103.99330 | 24 ft | 4 kts | 141° |
| 2026-04-26 16:03 | 1.36510 | 103.99308 | 24 ft | 2 kts | 143° |
| 2026-04-26 16:03 | 1.36527 | 103.99294 | 25 ft | 4 kts | 124° |
| 2026-04-26 16:03 | 1.36530 | 103.99277 | 24 ft | 3 kts | 53° |
| 2026-04-26 16:03 | 1.36514 | 103.99256 | 24 ft | 4 kts | 53° |
| 2026-04-26 16:04 | 1.36501 | 103.99239 | 24 ft | 0 kts | 53° |
| 2026-04-26 16:07 | 1.36508 | 103.99248 | 24 ft | 3 kts | 54° |
| 2026-04-26 16:07 | 1.36522 | 103.99267 | 24 ft | 4 kts | 54° |
| 2026-04-26 16:08 | 1.36544 | 103.99298 | 24 ft | 7 kts | 54° |
| 2026-04-26 16:08 | 1.36565 | 103.99325 | 24 ft | 8 kts | 53° |
| 2026-04-26 16:08 | 1.36575 | 103.99400 | 24 ft | 10 kts | 113° |
| 2026-04-26 16:08 | 1.36545 | 103.99471 | 25 ft | 12 kts | 112° |
| 2026-04-26 16:09 | 1.36510 | 103.99554 | 24 ft | 14 kts | 112° |
| 2026-04-26 16:09 | 1.36470 | 103.99650 | 24 ft | 15 kts | 112° |
| 2026-04-26 16:09 | 1.36433 | 103.99738 | 25 ft | 13 kts | 112° |
| 2026-04-26 16:09 | 1.36382 | 103.99775 | 24 ft | 9 kts | 185° |
| 2026-04-26 16:10 | 1.36320 | 103.99751 | 24 ft | 11 kts | 202° |
| 2026-04-26 16:10 | 1.36245 | 103.99719 | 26 ft | 13 kts | 203° |
| 2026-04-26 16:10 | 1.36158 | 103.99682 | 25 ft | 15 kts | 203° |
| 2026-04-26 16:10 | 1.36057 | 103.99639 | 26 ft | 17 kts | 202° |
| 2026-04-26 16:11 | 1.35942 | 103.99591 | 26 ft | 19 kts | 203° |
| 2026-04-26 16:11 | 1.35814 | 103.99537 | 24 ft | 21 kts | 202° |
| 2026-04-26 16:11 | 1.35677 | 103.99479 | 25 ft | 21 kts | 203° |
| 2026-04-26 16:11 | 1.35545 | 103.99423 | 24 ft | 19 kts | 203° |
| 2026-04-26 16:12 | 1.35430 | 103.99375 | 24 ft | 18 kts | 202° |
| 2026-04-26 16:12 | 1.35307 | 103.99323 | 24 ft | 20 kts | 203° |
| 2026-04-26 16:12 | 1.35026 | 103.99204 | 26 ft | 22 kts | 203° |
| 2026-04-26 16:13 | 1.34879 | 103.99142 | 24 ft | 23 kts | 203° |
| 2026-04-26 16:13 | 1.34742 | 103.99084 | 24 ft | 21 kts | 203° |
| 2026-04-26 16:13 | 1.34605 | 103.99028 | 26 ft | 22 kts | 203° |
| 2026-04-26 16:13 | 1.34471 | 103.98970 | 24 ft | 19 kts | 203° |
| 2026-04-26 16:14 | 1.34343 | 103.98916 | 25 ft | 21 kts | 202° |
| 2026-04-26 16:14 | 1.34201 | 103.98858 | 26 ft | 23 kts | 202° |
| 2026-04-26 16:14 | 1.33888 | 103.98725 | 26 ft | 20 kts | 203° |
| 2026-04-26 16:15 | 1.33760 | 103.98670 | 24 ft | 21 kts | 203° |
| 2026-04-26 16:15 | 1.33655 | 103.98626 | 24 ft | 10 kts | 202° |
| 2026-04-26 16:15 | 1.33600 | 103.98656 | 25 ft | 11 kts | 115° |
| 2026-04-26 16:16 | 1.33564 | 103.98778 | 26 ft | 7 kts | 62° |
| 2026-04-26 16:16 | 1.33596 | 103.98797 | 24 ft | 0 kts | 19° |
| 2026-04-26 16:16 | 1.33602 | 103.98799 | 24 ft | 2 kts | 19° |
| 2026-04-26 16:16 | 1.33739 | 103.98857 | 26 ft | 54 kts | 23° |
| 2026-04-26 16:17 | 1.34288 | 103.99088 | 24 ft | 114 kts | 22° |
| 2026-04-26 16:17 | 1.35173 | 103.99460 | 24 ft | 160 kts | 22° |
| 2026-04-26 16:17 | 1.36285 | 103.99921 | 327 ft | 175 kts | 22° |
| 2026-04-26 16:17 | 1.37407 | 104.00394 | 987 ft | 176 kts | 22° |
| 2026-04-26 16:18 | 1.38534 | 104.00878 | 1640 ft | 176 kts | 22° |
| 2026-04-26 16:18 | 1.40902 | 104.01892 | 2336 ft | 203 kts | 24° |
| 2026-04-26 16:19 | 1.43845 | 104.03136 | 2865 ft | 255 kts | 24° |
| 2026-04-26 16:19 | 1.45508 | 104.03839 | 3569 ft | 263 kts | 25° |
| 2026-04-26 16:19 | 1.47671 | 104.05907 | 4920 ft | 268 kts | 68° |
| 2026-04-26 16:20 | 1.47875 | 104.08387 | 5987 ft | 275 kts | 101° |
| 2026-04-26 16:20 | 1.45619 | 104.11419 | 7470 ft | 287 kts | 149° |
| 2026-04-26 16:20 | 1.43844 | 104.12371 | 8195 ft | 291 kts | 150° |
| 2026-04-26 16:21 | 1.42043 | 104.13326 | 8902 ft | 294 kts | 150° |
| 2026-04-26 16:21 | 1.40225 | 104.14293 | 9577 ft | 298 kts | 150° |
| 2026-04-26 16:21 | 1.38390 | 104.15274 | 10246 ft | 302 kts | 150° |
| 2026-04-26 16:21 | 1.36476 | 104.16302 | 10438 ft | 323 kts | 150° |
| 2026-04-26 16:22 | 1.34434 | 104.17399 | 10571 ft | 343 kts | 150° |
| 2026-04-26 16:22 | 1.32302 | 104.18543 | 10972 ft | 351 kts | 150° |
| 2026-04-26 16:22 | 1.30135 | 104.19703 | 11544 ft | 355 kts | 150° |
| 2026-04-26 16:22 | 1.27950 | 104.20875 | 12169 ft | 357 kts | 149° |
| 2026-04-26 16:23 | 1.25753 | 104.22056 | 12759 ft | 360 kts | 149° |
| 2026-04-26 16:23 | 1.23569 | 104.23230 | 13334 ft | 362 kts | 149° |
| 2026-04-26 16:23 | 1.21343 | 104.24424 | 13902 ft | 365 kts | 149° |
| 2026-04-26 16:23 | 1.19068 | 104.25644 | 14463 ft | 367 kts | 150° |
| 2026-04-26 16:24 | 1.16810 | 104.26855 | 15012 ft | 370 kts | 149° |
| 2026-04-26 16:24 | 1.14535 | 104.28076 | 15543 ft | 372 kts | 149° |
| 2026-04-26 16:24 | 1.12277 | 104.29291 | 16056 ft | 375 kts | 149° |
| 2026-04-26 16:24 | 1.09973 | 104.30531 | 16575 ft | 377 kts | 149° |
| 2026-04-26 16:25 | 1.07652 | 104.31777 | 17096 ft | 380 kts | 149° |
| 2026-04-26 16:25 | 1.05317 | 104.33028 | 17600 ft | 382 kts | 149° |
| 2026-04-26 16:25 | 1.02965 | 104.34286 | 18105 ft | 385 kts | 149° |
| 2026-04-26 16:25 | 1.00598 | 104.35552 | 18588 ft | 387 kts | 149° |
| 2026-04-26 16:26 | 0.98212 | 104.36832 | 19057 ft | 391 kts | 149° |
| 2026-04-26 16:26 | 0.96592 | 104.37703 | 19373 ft | 393 kts | 149° |
| 2026-04-26 16:26 | 0.93394 | 104.39429 | 19993 ft | 397 kts | 149° |
| 2026-04-26 16:26 | 0.90957 | 104.40745 | 20444 ft | 400 kts | 149° |
| 2026-04-26 16:27 | 0.88497 | 104.42070 | 20887 ft | 403 kts | 149° |
| 2026-04-26 16:27 | 0.86018 | 104.43401 | 21323 ft | 406 kts | 149° |
| 2026-04-26 16:27 | 0.83519 | 104.44735 | 21731 ft | 409 kts | 150° |
| 2026-04-26 16:27 | 0.81002 | 104.46079 | 22133 ft | 412 kts | 149° |
| 2026-04-26 16:28 | 0.78471 | 104.47434 | 22515 ft | 414 kts | 149° |
| 2026-04-26 16:28 | 0.75925 | 104.48802 | 22887 ft | 417 kts | 149° |
| 2026-04-26 16:28 | 0.73363 | 104.50179 | 23237 ft | 420 kts | 149° |
| 2026-04-26 16:28 | 0.70784 | 104.51566 | 23579 ft | 422 kts | 149° |
| 2026-04-26 16:29 | 0.68191 | 104.52962 | 23914 ft | 424 kts | 149° |
| 2026-04-26 16:29 | 0.65584 | 104.54366 | 24235 ft | 427 kts | 149° |
| 2026-04-26 16:29 | 0.62963 | 104.55776 | 24556 ft | 429 kts | 149° |
| 2026-04-26 16:29 | 0.60324 | 104.57191 | 24861 ft | 431 kts | 149° |
| 2026-04-26 16:30 | 0.57671 | 104.58610 | 25173 ft | 434 kts | 149° |
| 2026-04-26 16:30 | 0.55004 | 104.60038 | 25475 ft | 436 kts | 149° |
| 2026-04-26 16:30 | 0.52328 | 104.61474 | 25775 ft | 438 kts | 149° |
| 2026-04-26 16:30 | 0.49700 | 104.63015 | 26050 ft | 438 kts | 143° |
| 2026-04-26 16:31 | 0.47360 | 104.64959 | 26338 ft | 438 kts | 133° |
| 2026-04-26 16:31 | 0.45398 | 104.67280 | 26603 ft | 438 kts | 123° |
| 2026-04-26 16:31 | 0.43821 | 104.69882 | 26863 ft | 439 kts | 118° |
| 2026-04-26 16:31 | 0.42301 | 104.72534 | 27124 ft | 441 kts | 118° |
| 2026-04-26 16:32 | 0.40769 | 104.75195 | 27361 ft | 443 kts | 118° |
| 2026-04-26 16:32 | 0.39750 | 104.76963 | 27521 ft | 444 kts | 118° |
| 2026-04-26 16:32 | 0.37677 | 104.80548 | 27853 ft | 447 kts | 119° |
| 2026-04-26 16:32 | 0.36120 | 104.83237 | 28087 ft | 449 kts | 119° |
| 2026-04-26 16:33 | 0.34576 | 104.85907 | 28340 ft | 451 kts | 119° |
| 2026-04-26 16:33 | 0.33005 | 104.88623 | 28585 ft | 453 kts | 119° |
| 2026-04-26 16:33 | 0.31426 | 104.91351 | 28832 ft | 455 kts | 119° |
| 2026-04-26 16:33 | 0.29819 | 104.94129 | 29080 ft | 457 kts | 119° |
| 2026-04-26 16:34 | 0.28251 | 104.96840 | 29365 ft | 457 kts | 119° |
| 2026-04-26 16:34 | 0.26661 | 104.99589 | 29714 ft | 456 kts | 119° |
| 2026-04-26 16:34 | 0.25053 | 105.02370 | 30069 ft | 456 kts | 119° |
| 2026-04-26 16:34 | 0.24002 | 105.04186 | 30294 ft | 456 kts | 119° |
| 2026-04-26 16:35 | 0.22414 | 105.06925 | 30649 ft | 455 kts | 119° |
| 2026-04-26 16:35 | 0.20828 | 105.09659 | 31021 ft | 454 kts | 119° |
| 2026-04-26 16:35 | 0.19250 | 105.12380 | 31410 ft | 452 kts | 119° |
| 2026-04-26 16:35 | 0.17169 | 105.15978 | 31926 ft | 450 kts | 119° |
| 2026-04-26 16:36 | 0.16114 | 105.17805 | 32198 ft | 449 kts | 119° |
| 2026-04-26 16:36 | 0.14051 | 105.21374 | 32705 ft | 447 kts | 119° |
| 2026-04-26 16:36 | 0.13003 | 105.23186 | 32973 ft | 446 kts | 119° |
| 2026-04-26 16:36 | 0.11453 | 105.25862 | 33356 ft | 444 kts | 119° |
| 2026-04-26 16:37 | 0.09909 | 105.28530 | 33734 ft | 443 kts | 119° |
| 2026-04-26 16:37 | 0.08371 | 105.31186 | 34089 ft | 441 kts | 119° |
| 2026-04-26 16:37 | 0.06838 | 105.33836 | 34465 ft | 439 kts | 119° |
| 2026-04-26 16:37 | 0.05316 | 105.36473 | 34799 ft | 438 kts | 119° |
| 2026-04-26 16:38 | 0.03796 | 105.39109 | 35109 ft | 437 kts | 119° |
| 2026-04-26 16:38 | 0.02301 | 105.41700 | 35399 ft | 436 kts | 119° |
| 2026-04-26 16:38 | 0.00765 | 105.44356 | 35688 ft | 436 kts | 119° |
| 2026-04-26 16:38 | -0.00730 | 105.46937 | 35983 ft | 434 kts | 119° |
| 2026-04-26 16:39 | -0.02240 | 105.49548 | 36261 ft | 433 kts | 119° |
| 2026-04-26 16:39 | -0.03747 | 105.52155 | 36517 ft | 433 kts | 119° |
| 2026-04-26 16:39 | -0.05251 | 105.54756 | 36787 ft | 432 kts | 119° |
| 2026-04-26 16:39 | -0.06748 | 105.57349 | 36898 ft | 430 kts | 119° |
| 2026-04-26 16:40 | -0.09751 | 105.62556 | 36930 ft | 433 kts | 119° |
| 2026-04-26 16:40 | -0.12766 | 105.67768 | 36926 ft | 434 kts | 119° |
| 2026-04-26 16:41 | -0.15795 | 105.72985 | 36931 ft | 434 kts | 119° |
| 2026-04-26 16:41 | -0.18812 | 105.78202 | 36918 ft | 433 kts | 119° |
| 2026-04-26 16:42 | -0.21828 | 105.83416 | 36915 ft | 433 kts | 119° |
| 2026-04-26 16:42 | -0.24839 | 105.88635 | 36914 ft | 433 kts | 119° |
| 2026-04-26 16:43 | -0.27846 | 105.93849 | 36929 ft | 433 kts | 119° |
| 2026-04-26 16:43 | -0.30864 | 105.99065 | 36929 ft | 433 kts | 119° |
| 2026-04-26 16:44 | -0.33881 | 106.04278 | 36928 ft | 434 kts | 119° |
| 2026-04-26 16:44 | -0.36899 | 106.09499 | 36917 ft | 434 kts | 119° |
| 2026-04-26 16:45 | -0.39919 | 106.14726 | 36929 ft | 434 kts | 119° |
| 2026-04-26 16:45 | -0.42949 | 106.19949 | 36914 ft | 435 kts | 119° |
| 2026-04-26 16:46 | -0.45978 | 106.25180 | 36923 ft | 435 kts | 119° |
| 2026-04-26 16:46 | -0.48975 | 106.30380 | 36914 ft | 435 kts | 119° |
| 2026-04-26 16:47 | -0.52001 | 106.35615 | 36918 ft | 435 kts | 119° |
| 2026-04-26 16:47 | -0.55030 | 106.40858 | 36916 ft | 436 kts | 119° |
| 2026-04-26 16:48 | -0.58061 | 106.46098 | 36914 ft | 436 kts | 119° |
| 2026-04-26 16:48 | -0.61116 | 106.51330 | 36923 ft | 436 kts | 122° |
| 2026-04-26 16:49 | -0.64968 | 106.56007 | 36924 ft | 437 kts | 130° |
| 2026-04-26 16:49 | -0.68993 | 106.60549 | 36921 ft | 437 kts | 130° |
| 2026-04-26 16:50 | -0.73033 | 106.65097 | 36913 ft | 437 kts | 130° |
| 2026-04-26 16:50 | -0.77074 | 106.69643 | 36907 ft | 438 kts | 130° |
| 2026-04-26 16:51 | -0.81118 | 106.74198 | 36920 ft | 438 kts | 130° |
| 2026-04-26 16:51 | -0.85162 | 106.78757 | 36923 ft | 439 kts | 130° |
| 2026-04-26 16:52 | -0.88523 | 106.82554 | 36913 ft | 439 kts | 130° |
| 2026-04-26 16:52 | -0.93249 | 106.87894 | 36912 ft | 439 kts | 130° |
| 2026-04-26 16:53 | -0.97301 | 106.92462 | 36916 ft | 439 kts | 130° |
| 2026-04-26 16:53 | -1.01361 | 106.97026 | 36924 ft | 439 kts | 130° |
| 2026-04-26 16:54 | -1.05416 | 107.01595 | 36918 ft | 439 kts | 130° |
| 2026-04-26 16:54 | -1.09470 | 107.06165 | 36924 ft | 439 kts | 130° |
| 2026-04-26 16:55 | -1.13526 | 107.10745 | 36922 ft | 440 kts | 130° |
| 2026-04-26 16:55 | -1.17588 | 107.15324 | 36906 ft | 440 kts | 130° |
| 2026-04-26 16:56 | -1.23678 | 107.22195 | 36920 ft | 440 kts | 130° |
| 2026-04-26 16:57 | -1.27734 | 107.26772 | 36912 ft | 440 kts | 130° |
| 2026-04-26 16:57 | -1.33801 | 107.33613 | 36904 ft | 440 kts | 130° |
| 2026-04-26 16:58 | -1.37209 | 107.37451 | 36912 ft | 441 kts | 130° |
| 2026-04-26 16:59 | -1.43869 | 107.45151 | 36909 ft | 440 kts | 129° |
| 2026-04-26 17:00 | -1.51866 | 107.54454 | 36900 ft | 441 kts | 130° |
| 2026-04-26 17:00 | -1.57879 | 107.61417 | 36907 ft | 441 kts | 129° |
| 2026-04-26 17:01 | -1.61889 | 107.66061 | 36902 ft | 441 kts | 129° |
| 2026-04-26 17:01 | -1.65901 | 107.70711 | 36906 ft | 442 kts | 129° |
| 2026-04-26 17:02 | -1.69916 | 107.75359 | 36903 ft | 442 kts | 129° |
| 2026-04-26 17:02 | -1.73931 | 107.80013 | 36907 ft | 442 kts | 129° |
| 2026-04-26 17:03 | -1.77941 | 107.84671 | 36902 ft | 442 kts | 129° |
| 2026-04-26 17:03 | -1.81957 | 107.89330 | 36906 ft | 443 kts | 129° |
| 2026-04-26 17:04 | -1.85982 | 107.93989 | 36901 ft | 443 kts | 130° |
| 2026-04-26 17:04 | -1.89979 | 107.98619 | 36910 ft | 443 kts | 129° |
| 2026-04-26 17:05 | -1.94004 | 108.03287 | 36905 ft | 443 kts | 129° |
| 2026-04-26 17:05 | -1.98025 | 108.07958 | 36910 ft | 444 kts | 129° |
| 2026-04-26 17:06 | -2.02052 | 108.12626 | 36916 ft | 444 kts | 130° |
| 2026-04-26 17:06 | -2.06082 | 108.17299 | 36918 ft | 444 kts | 129° |
| 2026-04-26 17:07 | -2.10116 | 108.21966 | 36912 ft | 443 kts | 130° |
| 2026-04-26 17:07 | -2.14145 | 108.26632 | 36908 ft | 443 kts | 129° |
| 2026-04-26 17:08 | -2.18170 | 108.31300 | 36905 ft | 443 kts | 129° |
| 2026-04-26 17:08 | -2.22196 | 108.35973 | 36911 ft | 444 kts | 129° |
| 2026-04-26 17:09 | -2.25543 | 108.39859 | 36909 ft | 443 kts | 129° |
| 2026-04-26 17:09 | -2.30243 | 108.45315 | 36910 ft | 443 kts | 130° |
| 2026-04-26 17:10 | -2.34272 | 108.49974 | 36913 ft | 442 kts | 130° |
| 2026-04-26 17:10 | -2.38297 | 108.54624 | 36900 ft | 443 kts | 129° |
| 2026-04-26 17:11 | -2.42319 | 108.59293 | 36894 ft | 443 kts | 129° |
| 2026-04-26 17:11 | -2.46337 | 108.63966 | 36898 ft | 443 kts | 129° |
| 2026-04-26 17:12 | -2.52343 | 108.70943 | 36905 ft | 443 kts | 130° |
| 2026-04-26 17:13 | -2.58400 | 108.77929 | 36900 ft | 443 kts | 130° |
| 2026-04-26 17:14 | -2.64459 | 108.84915 | 36905 ft | 443 kts | 130° |
| 2026-04-26 17:14 | -2.70507 | 108.91913 | 36916 ft | 443 kts | 130° |
| 2026-04-26 17:15 | -2.76550 | 108.98915 | 36910 ft | 443 kts | 129° |
| 2026-04-26 17:16 | -2.80584 | 109.03584 | 36905 ft | 443 kts | 130° |
| 2026-04-26 17:16 | -2.84624 | 109.08247 | 36912 ft | 443 kts | 130° |
| 2026-04-26 17:17 | -2.88659 | 109.12910 | 36911 ft | 443 kts | 129° |
| 2026-04-26 17:17 | -2.92685 | 109.17583 | 36914 ft | 443 kts | 129° |
| 2026-04-26 17:18 | -2.96705 | 109.22261 | 36905 ft | 443 kts | 129° |
| 2026-04-26 17:18 | -3.00731 | 109.26943 | 36905 ft | 444 kts | 129° |
| 2026-04-26 17:19 | -3.06779 | 109.33954 | 36915 ft | 443 kts | 129° |
| 2026-04-26 17:19 | -3.10804 | 109.38634 | 36907 ft | 444 kts | 129° |
| 2026-04-26 17:20 | -3.13467 | 109.41732 | 36912 ft | 444 kts | 129° |
| 2026-04-26 17:20 | -3.18822 | 109.47963 | 36906 ft | 444 kts | 129° |
| 2026-04-26 17:21 | -3.22850 | 109.52638 | 36905 ft | 443 kts | 129° |
| 2026-04-26 17:21 | -3.26875 | 109.57313 | 36907 ft | 443 kts | 129° |
| 2026-04-26 17:22 | -3.30897 | 109.61989 | 36907 ft | 443 kts | 129° |
| 2026-04-26 17:22 | -3.34914 | 109.66670 | 36907 ft | 444 kts | 129° |
| 2026-04-26 17:23 | -3.38260 | 109.70568 | 36901 ft | 444 kts | 129° |
| 2026-04-26 17:23 | -3.42288 | 109.75253 | 36912 ft | 444 kts | 129° |
| 2026-04-26 17:24 | -3.46316 | 109.79933 | 36913 ft | 443 kts | 129° |
| 2026-04-26 17:24 | -3.50337 | 109.84611 | 36912 ft | 443 kts | 129° |
| 2026-04-26 17:25 | -3.54361 | 109.89293 | 36905 ft | 443 kts | 129° |
| 2026-04-26 17:25 | -3.58377 | 109.93974 | 36911 ft | 443 kts | 129° |
| 2026-04-26 17:26 | -3.62397 | 109.98654 | 36905 ft | 443 kts | 129° |
| 2026-04-26 17:26 | -3.66415 | 110.03333 | 36905 ft | 443 kts | 129° |
| 2026-04-26 17:27 | -3.70427 | 110.08008 | 36893 ft | 442 kts | 129° |
| 2026-04-26 17:27 | -3.74441 | 110.12682 | 36897 ft | 443 kts | 129° |
| 2026-04-26 17:28 | -3.78454 | 110.17358 | 36907 ft | 443 kts | 129° |
| 2026-04-26 17:28 | -3.82466 | 110.22038 | 36911 ft | 443 kts | 129° |
| 2026-04-26 17:29 | -3.85804 | 110.25923 | 36904 ft | 442 kts | 129° |
| 2026-04-26 17:29 | -3.90462 | 110.31353 | 36909 ft | 442 kts | 129° |
| 2026-04-26 17:30 | -3.94468 | 110.36029 | 36910 ft | 442 kts | 129° |
| 2026-04-26 17:30 | -3.98461 | 110.40771 | 36903 ft | 442 kts | 127° |
| 2026-04-26 17:31 | -4.02187 | 110.45610 | 36894 ft | 441 kts | 126° |
| 2026-04-26 17:31 | -4.05877 | 110.50526 | 36899 ft | 441 kts | 126° |
| 2026-04-26 17:32 | -4.09609 | 110.55411 | 36893 ft | 441 kts | 127° |
| 2026-04-26 17:32 | -4.13377 | 110.60266 | 36893 ft | 442 kts | 127° |
| 2026-04-26 17:33 | -4.17144 | 110.65129 | 36891 ft | 442 kts | 127° |
| 2026-04-26 17:34 | -4.22776 | 110.72434 | 36895 ft | 442 kts | 127° |
| 2026-04-26 17:34 | -4.26536 | 110.77314 | 36895 ft | 442 kts | 127° |
| 2026-04-26 17:35 | -4.30298 | 110.82186 | 36895 ft | 442 kts | 127° |
| 2026-04-26 17:35 | -4.34063 | 110.87052 | 36890 ft | 442 kts | 127° |
| 2026-04-26 17:36 | -4.37819 | 110.91925 | 36897 ft | 442 kts | 127° |
| 2026-04-26 17:36 | -4.41570 | 110.96806 | 36892 ft | 442 kts | 127° |
| 2026-04-26 17:37 | -4.45326 | 111.01682 | 36892 ft | 442 kts | 127° |
| 2026-04-26 17:37 | -4.49083 | 111.06561 | 36892 ft | 442 kts | 127° |
| 2026-04-26 17:38 | -4.54723 | 111.13872 | 36898 ft | 442 kts | 127° |
| 2026-04-26 17:38 | -4.58479 | 111.18747 | 36905 ft | 442 kts | 127° |
| 2026-04-26 17:39 | -4.62228 | 111.23624 | 36898 ft | 442 kts | 127° |
| 2026-04-26 17:39 | -4.65988 | 111.28494 | 36893 ft | 442 kts | 127° |
| 2026-04-26 17:40 | -4.69129 | 111.32528 | 36896 ft | 442 kts | 127° |
| 2026-04-26 17:40 | -4.73516 | 111.38174 | 36888 ft | 442 kts | 127° |
| 2026-04-26 17:41 | -4.77286 | 111.43046 | 36889 ft | 442 kts | 127° |
| 2026-04-26 17:41 | -4.81054 | 111.47910 | 36890 ft | 442 kts | 127° |
| 2026-04-26 17:42 | -4.84756 | 111.52694 | 36895 ft | 442 kts | 127° |
| 2026-04-26 17:42 | -4.88523 | 111.57559 | 36887 ft | 442 kts | 127° |
| 2026-04-26 17:43 | -4.92291 | 111.62434 | 36886 ft | 442 kts | 127° |
| 2026-04-26 17:43 | -4.96063 | 111.67306 | 36893 ft | 442 kts | 127° |
| 2026-04-26 17:44 | -4.99839 | 111.72175 | 36891 ft | 442 kts | 127° |
| 2026-04-26 17:44 | -5.03609 | 111.77041 | 36893 ft | 442 kts | 127° |
| 2026-04-26 17:45 | -5.07374 | 111.81916 | 36888 ft | 442 kts | 127° |
| 2026-04-26 17:45 | -5.11137 | 111.86795 | 36890 ft | 442 kts | 127° |
| 2026-04-26 17:46 | -5.14915 | 111.91675 | 36885 ft | 443 kts | 127° |
| 2026-04-26 17:46 | -5.18670 | 111.96516 | 36884 ft | 443 kts | 127° |
| 2026-04-26 17:47 | -5.21832 | 112.00605 | 36883 ft | 443 kts | 127° |
| 2026-04-26 17:47 | -5.26212 | 112.06289 | 36884 ft | 443 kts | 127° |
| 2026-04-26 17:48 | -5.29974 | 112.11175 | 36887 ft | 443 kts | 127° |
| 2026-04-26 17:48 | -5.33745 | 112.16060 | 36883 ft | 442 kts | 127° |
| 2026-04-26 17:49 | -5.37515 | 112.20939 | 36885 ft | 442 kts | 127° |
| 2026-04-26 17:49 | -5.41290 | 112.25824 | 36882 ft | 443 kts | 127° |
| 2026-04-26 17:50 | -5.45071 | 112.30708 | 36884 ft | 443 kts | 127° |
| 2026-04-26 17:50 | -5.48840 | 112.35600 | 36885 ft | 443 kts | 127° |
| 2026-04-26 17:51 | -5.52611 | 112.40496 | 36884 ft | 443 kts | 127° |
| 2026-04-26 17:51 | -5.56385 | 112.45386 | 36884 ft | 443 kts | 127° |
| 2026-04-26 17:52 | -5.60159 | 112.50275 | 36884 ft | 443 kts | 127° |
| 2026-04-26 17:52 | -5.63930 | 112.55172 | 36880 ft | 443 kts | 127° |
| 2026-04-26 17:53 | -5.67703 | 112.60070 | 36884 ft | 443 kts | 127° |
| 2026-04-26 17:54 | -5.73365 | 112.67413 | 36882 ft | 443 kts | 127° |
| 2026-04-26 17:54 | -5.77136 | 112.72311 | 36883 ft | 443 kts | 127° |
| 2026-04-26 17:55 | -5.80904 | 112.77210 | 36883 ft | 442 kts | 127° |
| 2026-04-26 17:55 | -5.84670 | 112.82096 | 36880 ft | 442 kts | 127° |
| 2026-04-26 17:56 | -5.88439 | 112.86983 | 36880 ft | 442 kts | 127° |
| 2026-04-26 17:57 | -5.95932 | 112.96731 | 36880 ft | 442 kts | 127° |
| 2026-04-26 17:57 | -5.99691 | 113.01618 | 36879 ft | 442 kts | 127° |
| 2026-04-26 17:58 | -6.07207 | 113.11397 | 36877 ft | 442 kts | 127° |
| 2026-04-26 17:59 | -6.12837 | 113.18735 | 36872 ft | 442 kts | 126° |
| 2026-04-26 17:59 | -6.16594 | 113.23628 | 36873 ft | 442 kts | 126° |
| 2026-04-26 18:00 | -6.20354 | 113.28522 | 36873 ft | 442 kts | 127° |
| 2026-04-26 18:00 | -6.24117 | 113.33412 | 36874 ft | 442 kts | 126° |
| 2026-04-26 18:01 | -6.27860 | 113.38326 | 36876 ft | 442 kts | 126° |
| 2026-04-26 18:01 | -6.31554 | 113.43272 | 36881 ft | 442 kts | 125° |
| 2026-04-26 18:02 | -6.33989 | 113.46545 | 36881 ft | 442 kts | 125° |
| 2026-04-26 18:02 | -6.38917 | 113.53145 | 36884 ft | 441 kts | 125° |
| 2026-04-26 18:03 | -6.42606 | 113.58070 | 36884 ft | 441 kts | 125° |
| 2026-04-26 18:03 | -6.46291 | 113.62985 | 36885 ft | 440 kts | 125° |
| 2026-04-26 18:04 | -6.49947 | 113.67872 | 36883 ft | 439 kts | 125° |
| 2026-04-26 18:05 | -6.55462 | 113.75238 | 36875 ft | 439 kts | 125° |
| 2026-04-26 18:05 | -6.59141 | 113.80147 | 36872 ft | 440 kts | 125° |
| 2026-04-26 18:06 | -6.62817 | 113.85064 | 36873 ft | 440 kts | 125° |
| 2026-04-26 18:06 | -6.66484 | 113.89990 | 36874 ft | 440 kts | 125° |
| 2026-04-26 18:07 | -6.70162 | 113.94920 | 36872 ft | 441 kts | 125° |
| 2026-04-26 18:07 | -6.73852 | 113.99845 | 36879 ft | 441 kts | 125° |
| 2026-04-26 18:08 | -6.77534 | 114.04774 | 36877 ft | 441 kts | 125° |
| 2026-04-26 18:08 | -6.81214 | 114.09708 | 36879 ft | 441 kts | 125° |
| 2026-04-26 18:09 | -6.84895 | 114.14642 | 36879 ft | 441 kts | 125° |
| 2026-04-26 18:09 | -6.88576 | 114.19576 | 36880 ft | 441 kts | 125° |
| 2026-04-26 18:10 | -6.92260 | 114.24511 | 36880 ft | 441 kts | 125° |
| 2026-04-26 18:10 | -6.95943 | 114.29453 | 36879 ft | 441 kts | 125° |
| 2026-04-26 18:11 | -6.99633 | 114.34391 | 36880 ft | 441 kts | 125° |
| 2026-04-26 18:11 | -7.03322 | 114.39333 | 36881 ft | 442 kts | 125° |
| 2026-04-26 18:12 | -7.06388 | 114.43444 | 36882 ft | 442 kts | 125° |
| 2026-04-26 18:12 | -7.10077 | 114.48395 | 36882 ft | 442 kts | 125° |
| 2026-04-26 18:13 | -7.14367 | 114.54153 | 36885 ft | 442 kts | 125° |
| 2026-04-26 18:13 | -7.17453 | 114.58309 | 36884 ft | 442 kts | 125° |
| 2026-04-26 18:14 | -7.21145 | 114.63268 | 36880 ft | 443 kts | 125° |
| 2026-04-26 18:14 | -7.24839 | 114.68228 | 36880 ft | 443 kts | 125° |
| 2026-04-26 18:15 | -7.28535 | 114.73195 | 36819 ft | 444 kts | 125° |
| 2026-04-26 18:15 | -7.30382 | 114.75680 | 36566 ft | 443 kts | 125° |
| 2026-04-26 18:15 | -7.32227 | 114.78161 | 36009 ft | 444 kts | 125° |
| 2026-04-26 18:15 | -7.34057 | 114.80628 | 35264 ft | 447 kts | 125° |
| 2026-04-26 18:16 | -7.35927 | 114.83146 | 34469 ft | 451 kts | 125° |
| 2026-04-26 18:16 | -7.39721 | 114.88247 | 32689 ft | 460 kts | 125° |
| 2026-04-26 18:16 | -7.41642 | 114.90834 | 31787 ft | 462 kts | 125° |
| 2026-04-26 18:17 | -7.43566 | 114.93425 | 31199 ft | 458 kts | 125° |
| 2026-04-26 18:17 | -7.45465 | 114.95986 | 30623 ft | 454 kts | 125° |
| 2026-04-26 18:17 | -7.47351 | 114.98526 | 30049 ft | 450 kts | 126° |
| 2026-04-26 18:17 | -7.49218 | 115.01039 | 29460 ft | 446 kts | 126° |
| 2026-04-26 18:18 | -7.51070 | 115.03528 | 28877 ft | 442 kts | 126° |
| 2026-04-26 18:18 | -7.52904 | 115.05999 | 28297 ft | 438 kts | 126° |
| 2026-04-26 18:18 | -7.54717 | 115.08443 | 27730 ft | 434 kts | 126° |
| 2026-04-26 18:18 | -7.56517 | 115.10864 | 27168 ft | 429 kts | 126° |
| 2026-04-26 18:19 | -7.58298 | 115.13260 | 26608 ft | 425 kts | 126° |
| 2026-04-26 18:19 | -7.60059 | 115.15638 | 26060 ft | 421 kts | 126° |
| 2026-04-26 18:19 | -7.61802 | 115.17991 | 25524 ft | 417 kts | 126° |
| 2026-04-26 18:19 | -7.63528 | 115.20323 | 25000 ft | 413 kts | 126° |
| 2026-04-26 18:20 | -7.65236 | 115.22630 | 24501 ft | 409 kts | 126° |
| 2026-04-26 18:20 | -7.66932 | 115.24916 | 24006 ft | 405 kts | 126° |
| 2026-04-26 18:20 | -7.68609 | 115.27180 | 23529 ft | 401 kts | 126° |
| 2026-04-26 18:20 | -7.69712 | 115.28670 | 23226 ft | 399 kts | 126° |
| 2026-04-26 18:21 | -7.71927 | 115.31656 | 22611 ft | 396 kts | 126° |
| 2026-04-26 18:21 | -7.73574 | 115.33878 | 22143 ft | 394 kts | 126° |
| 2026-04-26 18:21 | -7.75211 | 115.36086 | 21672 ft | 392 kts | 126° |
| 2026-04-26 18:21 | -7.76836 | 115.38284 | 21192 ft | 390 kts | 125° |
| 2026-04-26 18:22 | -7.78454 | 115.40467 | 20711 ft | 388 kts | 125° |
| 2026-04-26 18:22 | -7.80067 | 115.42637 | 20220 ft | 386 kts | 126° |
| 2026-04-26 18:22 | -7.81662 | 115.44790 | 19714 ft | 381 kts | 125° |
| 2026-04-26 18:22 | -7.83238 | 115.46923 | 19207 ft | 378 kts | 125° |
| 2026-04-26 18:23 | -7.84807 | 115.49044 | 18700 ft | 376 kts | 125° |
| 2026-04-26 18:23 | -7.86363 | 115.51147 | 18180 ft | 373 kts | 125° |
| 2026-04-26 18:23 | -7.87906 | 115.53236 | 17675 ft | 370 kts | 124° |
| 2026-04-26 18:23 | -7.89441 | 115.55308 | 17162 ft | 367 kts | 125° |
| 2026-04-26 18:24 | -7.90963 | 115.57363 | 16652 ft | 364 kts | 125° |
| 2026-04-26 18:24 | -7.92471 | 115.59403 | 16144 ft | 361 kts | 124° |
| 2026-04-26 18:24 | -7.93967 | 115.61424 | 15645 ft | 358 kts | 125° |
| 2026-04-26 18:24 | -7.95460 | 115.63438 | 15132 ft | 358 kts | 125° |
| 2026-04-26 18:25 | -7.96937 | 115.65437 | 14633 ft | 353 kts | 126° |
| 2026-04-26 18:25 | -7.98408 | 115.67418 | 14128 ft | 351 kts | 127° |
| 2026-04-26 18:25 | -8.00109 | 115.69166 | 13671 ft | 348 kts | 140° |
| 2026-04-26 18:25 | -8.02018 | 115.70643 | 13323 ft | 345 kts | 141° |
| 2026-04-26 18:26 | -8.03914 | 115.72111 | 12955 ft | 343 kts | 141° |
| 2026-04-26 18:26 | -8.05773 | 115.73550 | 12655 ft | 341 kts | 141° |
| 2026-04-26 18:26 | -8.07675 | 115.75019 | 12332 ft | 338 kts | 141° |
| 2026-04-26 18:26 | -8.09514 | 115.76444 | 11975 ft | 337 kts | 141° |
| 2026-04-26 18:27 | -8.11372 | 115.77879 | 11616 ft | 336 kts | 141° |
| 2026-04-26 18:27 | -8.13225 | 115.79309 | 11256 ft | 335 kts | 141° |
| 2026-04-26 18:27 | -8.15068 | 115.80732 | 10899 ft | 333 kts | 142° |
| 2026-04-26 18:27 | -8.16934 | 115.82118 | 10540 ft | 333 kts | 147° |
| 2026-04-26 18:28 | -8.18902 | 115.83313 | 10279 ft | 325 kts | 148° |
| 2026-04-26 18:28 | -8.20802 | 115.84465 | 10165 ft | 313 kts | 148° |
| 2026-04-26 18:28 | -8.22637 | 115.85576 | 10007 ft | 303 kts | 148° |
| 2026-04-26 18:28 | -8.24428 | 115.86658 | 9799 ft | 297 kts | 148° |
| 2026-04-26 18:29 | -8.26199 | 115.87727 | 9655 ft | 296 kts | 148° |
| 2026-04-26 18:29 | -8.27963 | 115.88796 | 9411 ft | 295 kts | 148° |
| 2026-04-26 18:29 | -8.29721 | 115.89863 | 9147 ft | 294 kts | 148° |
| 2026-04-26 18:29 | -8.31462 | 115.90922 | 8879 ft | 290 kts | 148° |
| 2026-04-26 18:30 | -8.33175 | 115.91965 | 8623 ft | 286 kts | 148° |
| 2026-04-26 18:30 | -8.34866 | 115.92996 | 8366 ft | 282 kts | 148° |
| 2026-04-26 18:30 | -8.36535 | 115.94011 | 8113 ft | 278 kts | 148° |
| 2026-04-26 18:30 | -8.38181 | 115.95009 | 7865 ft | 274 kts | 148° |
| 2026-04-26 18:31 | -8.39803 | 115.95992 | 7628 ft | 270 kts | 148° |
| 2026-04-26 18:31 | -8.41402 | 115.96960 | 7382 ft | 266 kts | 148° |
| 2026-04-26 18:31 | -8.42978 | 115.97913 | 7142 ft | 262 kts | 148° |
| 2026-04-26 18:31 | -8.44526 | 115.98849 | 6925 ft | 257 kts | 148° |
| 2026-04-26 18:32 | -8.46050 | 115.99772 | 6682 ft | 253 kts | 148° |
| 2026-04-26 18:32 | -8.47540 | 116.00678 | 6439 ft | 245 kts | 148° |
| 2026-04-26 18:32 | -8.48965 | 116.01547 | 6237 ft | 235 kts | 148° |
| 2026-04-26 18:32 | -8.50343 | 116.02388 | 6027 ft | 229 kts | 148° |
| 2026-04-26 18:33 | -8.51689 | 116.03208 | 5827 ft | 223 kts | 148° |
| 2026-04-26 18:33 | -8.53003 | 116.04005 | 5621 ft | 218 kts | 148° |
| 2026-04-26 18:33 | -8.54286 | 116.04784 | 5435 ft | 212 kts | 148° |
| 2026-04-26 18:33 | -8.55543 | 116.05544 | 5240 ft | 209 kts | 148° |
| 2026-04-26 18:34 | -8.56785 | 116.06298 | 5052 ft | 208 kts | 148° |
| 2026-04-26 18:34 | -8.58020 | 116.07048 | 4863 ft | 207 kts | 148° |
| 2026-04-26 18:34 | -8.59253 | 116.07797 | 4670 ft | 206 kts | 148° |
| 2026-04-26 18:34 | -8.60415 | 116.08627 | 4492 ft | 204 kts | 134° |
| 2026-04-26 18:35 | -8.61360 | 116.09691 | 4347 ft | 203 kts | 129° |
| 2026-04-26 18:35 | -8.62248 | 116.10787 | 4177 ft | 203 kts | 128° |
| 2026-04-26 18:35 | -8.63131 | 116.11884 | 3933 ft | 200 kts | 129° |
| 2026-04-26 18:35 | -8.64002 | 116.12965 | 3676 ft | 197 kts | 128° |
| 2026-04-26 18:36 | -8.64864 | 116.14035 | 3416 ft | 195 kts | 128° |
| 2026-04-26 18:36 | -8.65716 | 116.15094 | 3174 ft | 192 kts | 129° |
| 2026-04-26 18:36 | -8.66542 | 116.16119 | 2920 ft | 182 kts | 128° |
| 2026-04-26 18:36 | -8.67306 | 116.17067 | 2693 ft | 163 kts | 128° |
| 2026-04-26 18:37 | -8.67985 | 116.17911 | 2473 ft | 149 kts | 128° |
| 2026-04-26 18:37 | -8.68625 | 116.18707 | 2280 ft | 145 kts | 128° |
| 2026-04-26 18:37 | -8.69257 | 116.19492 | 2092 ft | 144 kts | 128° |
| 2026-04-26 18:37 | -8.69887 | 116.20274 | 1891 ft | 143 kts | 128° |
| 2026-04-26 18:38 | -8.70516 | 116.21056 | 1708 ft | 143 kts | 128° |
| 2026-04-26 18:38 | -8.71146 | 116.21839 | 1518 ft | 143 kts | 129° |
| 2026-04-26 18:38 | -8.71775 | 116.22620 | 1327 ft | 143 kts | 129° |
| 2026-04-26 18:38 | -8.72402 | 116.23400 | 1133 ft | 143 kts | 129° |
| 2026-04-26 18:39 | -8.73026 | 116.24176 | 954 ft | 143 kts | 129° |
| 2026-04-26 18:39 | -8.73647 | 116.24951 | 766 ft | 141 kts | 129° |
| 2026-04-26 18:39 | -8.74267 | 116.25727 | 566 ft | 141 kts | 129° |
| 2026-04-26 18:39 | -8.74891 | 116.26495 | 391 ft | 141 kts | 129° |
| 2026-04-26 18:40 | -8.75488 | 116.27230 | 333 ft | 121 kts | 129° |
| 2026-04-26 18:40 | -8.75812 | 116.27637 | 334 ft | 42 kts | 129° |
| 2026-04-26 18:40 | -8.75966 | 116.27820 | 335 ft | 16 kts | 144° |
| 2026-04-26 18:40 | -8.76056 | 116.27792 | 335 ft | 14 kts | 220° |
| 2026-04-26 18:41 | -8.76110 | 116.27747 | 334 ft | 0 kts | 220° |
| 2026-04-26 18:41 | -8.76119 | 116.27739 | 333 ft | 3 kts | 220° |
| 2026-04-26 18:41 | -8.76145 | 116.27717 | 334 ft | 6 kts | 220° |
| 2026-04-26 18:41 | -8.76176 | 116.27680 | 334 ft | 8 kts | 252° |
| 2026-04-26 18:42 | -8.76165 | 116.27645 | 334 ft | 0 kts | 303° |
| 2026-04-26 18:42 | -8.76162 | 116.27641 | 334 ft | 2 kts | 303° |
| 2026-04-26 18:42 | -8.76150 | 116.27622 | 334 ft | 5 kts | 303° |
| 2026-04-26 18:43 | -8.76126 | 116.27586 | 334 ft | 7 kts | 303° |
| 2026-04-26 18:43 | -8.76093 | 116.27535 | 332 ft | 10 kts | 303° |
| 2026-04-26 18:43 | -8.76078 | 116.27477 | 332 ft | 7 kts | 227° |
| 2026-04-26 18:43 | -8.76114 | 116.27451 | 332 ft | 4 kts | 217° |
| 2026-04-26 18:44 | -8.76127 | 116.27440 | 329 ft | 0 kts | 219° |